Terminal Aerodrome Forecast
Issued by NWS Grand Forks, ND

Home | Current Version | Previous Version | Text Only | Print | Product List | Glossary On
Versions: 1 2 3 4 5 6 7 8 9 10 11 12 13 14 15 16
800
FTUS43 KFGF 232320
TAFFAR
TAF
KFAR 232320Z 2400/2424 21010KT P6SM VCTS BKN080CB
     FM240100 23009KT P6SM SCT100
     FM240600 27007KT P6SM FEW250=

USA.gov is the U.S. government's official web portal to all federal, state and local government web resources and services.